• Join FlightAware (Why Join?)
  • Login
  • US Flag 
11:24AM EST


 

Airport Tracker/Info


-or-


 

Live Flight TrackerFlight Track Log ✈ CTL22 ✈ 05-Jul-2013 ✈ KBKL - KGRR

Flight Track Log - Related Links

Times and Time Zones

All times are in EDT time to prevent confusion due to time zone crossing. See the CTL22 flight status page for this flight to view local times or setup timezone preferences in your user account.

Time Position Orientation Groundspeed Altitude Reporting Facility
EDT Latitude Longitude Course Direction KTS MPH feet Rate Location/Type
09:33PM 41.5436 -81.7372 308° West 139 160 2,000  Level Cleveland Center
09:34PM 41.5597 -81.7764 299° West 129 148 3,200 960 Climbing Cleveland Center
09:35PM 41.5800 -81.8211 301° West 143 165 4,000 720 Climbing Cleveland Center
09:36PM 41.6025 -81.8772 298° West 147 169 4,800 720 Climbing Cleveland Center
09:37PM 41.6206 -81.9219 298° West 144 166 5,600 600 Climbing Cleveland Center
09:38PM 41.6389 -81.9722 296° West 144 166 6,100 240 Climbing Cleveland Center
09:39PM 41.6592 -82.0256 297° West 161 185 6,100  Level Cleveland Center
09:40PM 41.6811 -82.0817 298° West 170 196 6,200  Climbing Cleveland Center
09:41PM 41.7014 -82.1406 295° West 171 197 6,100 -60 Descending Cleveland Center
09:42PM 41.7172 -82.1994 290° West 171 197 6,100  Level Cleveland Center
09:43PM 41.7372 -82.2583 294° West 168 193 6,100 60 Level Cleveland Center
09:44PM 41.7514 -82.2892 302° West 168 193 6,200  Climbing Cleveland Center
09:44PM 41.7633 -82.3258 294° West 166 191 6,100 -180 Descending Cleveland Center
09:45PM 41.7833 -82.3764 298° West 169 194 6,000  Descending Cleveland Center
09:46PM 41.8033 -82.4300 297° West 167 192 6,100  Climbing Cleveland Center
09:47PM 41.8314 -82.5006 298° West 166 191 6,100  Level Cleveland Center
09:48PM 41.8514 -82.5539 297° West 165 190 6,100  Level Cleveland Center
09:49PM 41.8689 -82.6131 292° West 166 191 6,100  Level Cleveland Center
09:50PM 41.8850 -82.6556 297° West 166 191 6,100  Level Cleveland Center
09:51PM 41.9131 -82.7067 306° West 166 191 6,100  Level Cleveland Center
09:52PM 41.9392 -82.7606 303° West 167 192 6,100  Level Cleveland Center
09:53PM 41.9614 -82.8086 302° West 165 190 6,200  Climbing Cleveland Center
09:54PM 41.9894 -82.8656 304° West 166 191 6,100 -60 Descending Cleveland Center
09:55PM 42.0153 -82.9197 303° West 167 192 6,100  Level Cleveland Center
09:56PM 42.0414 -82.9653 308° West 169 194 6,100  Level Cleveland Center
09:57PM 42.0717 -83.0197 307° West 169 194 6,100  Level Cleveland Center
09:58PM 42.1019 -83.0683 310° West 167 192 6,200  Climbing Cleveland Center
09:59PM 42.1239 -83.1139 303° West 165 190 6,200  Level Cleveland Center
10:00PM 42.1542 -83.1600 312° West 167 192 6,300 -60 Climbing Cleveland Center
10:01PM 42.1822 -83.2089 308° West 170 196 6,100 -120 Descending Cleveland Center
10:02PM 42.2081 -83.2631 303° West 169 194 6,100  Level Cleveland Center
10:03PM 42.2275 -83.3200 295° West 165 190 6,100  Level Cleveland Center
10:04PM 42.2428 -83.3797 289° West 165 190 6,200 60 Climbing Cleveland Center
10:05PM 42.2581 -83.4392 289° West 170 196 6,300  Climbing Cleveland Center
10:06PM 42.2794 -83.4964 297° West 169 194 6,200 -120 Descending Cleveland Center
10:07PM 42.3008 -83.5564 296° West 171 197 6,100 -60 Descending Cleveland Center
10:08PM 42.3181 -83.6161 291° West 166 191 6,100  Level Cleveland Center
10:09PM 42.3436 -83.6764 300° West 164 189 6,200  Climbing Cleveland Center
10:10PM 42.3608 -83.7306 293° West 166 191 6,200  Level Cleveland Center
10:11PM 42.3781 -83.7875 292° West 172 198 6,200 -60 Level Cleveland Center
10:13PM 42.3946 -83.8549 288° West  Level FlightAware Approximate
10:15PM 42.4367 -84.0039 291° West 163 188 6,000  Level Chicago Center
10:16PM 42.4544 -84.0625 292° West 168 193 6,100  Climbing Chicago Center
10:17PM 42.4703 -84.1206 290° West 166 191 6,100 -60 Level Chicago Center
10:19PM 42.5061 -84.2525 290° West 170 196 6,000 -60 Descending Chicago Center
10:20PM 42.4981 -84.2523 291° West  Level FlightAware Approximate
10:20PM 42.5233 -84.3106 292° West 169 194 6,000  Level Chicago Center
10:21PM 42.5411 -84.3681 293° West 167 192 6,100  Climbing Chicago Center
10:22PM 42.5572 -84.4256 291° West 164 189 6,000  Descending Chicago Center
10:23PM 42.5747 -84.4850 292° West 168 193 6,100  Climbing Chicago Center
10:24PM 42.5953 -84.5419 296° West 169 194 6,000  Descending Chicago Center
10:25PM 42.6158 -84.5994 296° West 169 194 6,100  Climbing Chicago Center
10:26PM 42.6331 -84.6583 292° West 169 194 6,100  Level Chicago Center
10:27PM 42.6500 -84.7178 291° West 169 194 6,100 -60 Level Chicago Center
10:28PM 42.6669 -84.7758 292° West 167 192 6,000  Descending Chicago Center
10:29PM 42.6836 -84.8353 291° West 168 193 6,200  Climbing Chicago Center
10:30PM 42.6992 -84.8961 289° West 170 196 6,100 -60 Descending Chicago Center
10:31PM 42.7161 -84.9542 292° West 169 194 6,100  Level Chicago Center
10:32PM 42.7333 -85.0139 291° West 169 194 6,100 -60 Level Chicago Center
10:33PM 42.7533 -85.0731 295° West 172 198 6,000 -60 Descending Chicago Center
10:34PM 42.7717 -85.1314 293° West 171 197 6,000 -300 Level Chicago Center
10:35PM 42.7961 -85.2047 294° West 176 203 5,400 -600 Descending Chicago Center
10:36PM 42.8172 -85.2700 294° West 187 215 4,800 -780 Descending Chicago Center
10:37PM 42.8392 -85.3344 295° West 188 216 3,900 -900 Descending Chicago Center
10:38PM 42.8575 -85.4006 291° West 187 215 3,000 -660 Descending Chicago Center
10:39PM 42.8717 -85.4611 288° West 179 206 2,600 -1,080 Descending Chicago Center
10:40PM 42.8814 -85.5039 287° West 142 163 900 -1,680 Descending Chicago Center
10:42PM 42.8667 -85.5167 294° West  Level FlightAware Approximate
10:49PM 42.8808 -85.5228 294° West  Level Estimated